sensor_id;sensor_type;location;lat;lon;timestamp;P1;durP1;ratioP1;P2;durP2;ratioP2
74064;SDS011;62421;51.412;5.432;2023-04-25T00:00:56;20.23;;;6.40;;
74064;SDS011;62421;51.412;5.432;2023-04-25T00:03:22;18.60;;;5.55;;
74064;SDS011;62421;51.412;5.432;2023-04-25T00:05:50;16.25;;;6.32;;
74064;SDS011;62421;51.412;5.432;2023-04-25T00:08:16;17.65;;;5.50;;
74064;SDS011;62421;51.412;5.432;2023-04-25T00:10:42;21.60;;;5.13;;
74064;SDS011;62421;51.412;5.432;2023-04-25T00:13:08;17.30;;;6.22;;
74064;SDS011;62421;51.412;5.432;2023-04-25T00:15:33;20.67;;;7.25;;
74064;SDS011;62421;51.412;5.432;2023-04-25T00:17:59;24.27;;;7.17;;
74064;SDS011;62421;51.412;5.432;2023-04-25T00:20:24;20.83;;;7.55;;
74064;SDS011;62421;51.412;5.432;2023-04-25T00:22:50;21.25;;;6.38;;
74064;SDS011;62421;51.412;5.432;2023-04-25T00:25:17;20.40;;;6.43;;
74064;SDS011;62421;51.412;5.432;2023-04-25T00:27:43;18.77;;;6.00;;
74064;SDS011;62421;51.412;5.432;2023-04-25T00:30:08;21.10;;;6.23;;
74064;SDS011;62421;51.412;5.432;2023-04-25T00:32:34;20.27;;;5.87;;
74064;SDS011;62421;51.412;5.432;2023-04-25T00:35:00;20.33;;;6.07;;
74064;SDS011;62421;51.412;5.432;2023-04-25T00:37:25;17.40;;;5.73;;
74064;SDS011;62421;51.412;5.432;2023-04-25T00:39:50;26.50;;;5.47;;
74064;SDS011;62421;51.412;5.432;2023-04-25T00:42:18;15.05;;;5.40;;
74064;SDS011;62421;51.412;5.432;2023-04-25T00:44:44;22.37;;;5.50;;
74064;SDS011;62421;51.412;5.432;2023-04-25T00:47:10;18.52;;;5.45;;
74064;SDS011;62421;51.412;5.432;2023-04-25T00:49:36;17.67;;;5.90;;
74064;SDS011;62421;51.412;5.432;2023-04-25T00:52:01;18.73;;;6.27;;
74064;SDS011;62421;51.412;5.432;2023-04-25T00:54:27;18.20;;;5.37;;
74064;SDS011;62421;51.412;5.432;2023-04-25T00:56:52;26.27;;;6.93;;
74064;SDS011;62421;51.412;5.432;2023-04-25T00:59:18;20.13;;;6.53;;
74064;SDS011;62421;51.412;5.432;2023-04-25T01:01:45;20.17;;;6.10;;
74064;SDS011;62421;51.412;5.432;2023-04-25T01:04:10;16.90;;;6.45;;
74064;SDS011;62421;51.412;5.432;2023-04-25T01:06:36;20.17;;;6.43;;
74064;SDS011;62421;51.412;5.432;2023-04-25T01:09:01;25.23;;;7.90;;
74064;SDS011;62421;51.412;5.432;2023-04-25T01:11:27;21.75;;;5.60;;
74064;SDS011;62421;51.412;5.432;2023-04-25T01:13:53;20.43;;;6.20;;
74064;SDS011;62421;51.412;5.432;2023-04-25T01:16:18;28.00;;;6.20;;
74064;SDS011;62421;51.412;5.432;2023-04-25T01:18:45;20.80;;;5.27;;
74064;SDS011;62421;51.412;5.432;2023-04-25T01:21:12;20.38;;;5.10;;
74064;SDS011;62421;51.412;5.432;2023-04-25T01:23:41;18.35;;;5.20;;
74064;SDS011;62421;51.412;5.432;2023-04-25T01:26:10;18.83;;;5.13;;
74064;SDS011;62421;51.412;5.432;2023-04-25T01:28:37;17.40;;;5.10;;
74064;SDS011;62421;51.412;5.432;2023-04-25T01:31:05;20.58;;;4.95;;
74064;SDS011;62421;51.412;5.432;2023-04-25T01:33:31;18.45;;;6.43;;
74064;SDS011;62421;51.412;5.432;2023-04-25T01:35:57;13.67;;;5.07;;
74064;SDS011;62421;51.412;5.432;2023-04-25T01:38:22;20.57;;;5.20;;
74064;SDS011;62421;51.412;5.432;2023-04-25T01:40:48;18.27;;;5.45;;
74064;SDS011;62421;51.412;5.432;2023-04-25T01:43:15;18.20;;;5.25;;
74064;SDS011;62421;51.412;5.432;2023-04-25T01:45:41;13.02;;;5.68;;
74064;SDS011;62421;51.412;5.432;2023-04-25T01:48:07;22.23;;;4.90;;
74064;SDS011;62421;51.412;5.432;2023-04-25T01:50:33;19.17;;;5.47;;
74064;SDS011;62421;51.412;5.432;2023-04-25T01:52:59;15.60;;;5.07;;
74064;SDS011;62421;51.412;5.432;2023-04-25T01:55:24;19.08;;;5.35;;
74064;SDS011;62421;51.412;5.432;2023-04-25T01:57:50;21.17;;;5.07;;
74064;SDS011;62421;51.412;5.432;2023-04-25T02:00:15;22.23;;;5.87;;
74064;SDS011;62421;51.412;5.432;2023-04-25T02:02:41;22.30;;;5.95;;
74064;SDS011;62421;51.412;5.432;2023-04-25T02:05:06;24.87;;;5.97;;
74064;SDS011;62421;51.412;5.432;2023-04-25T02:07:32;13.93;;;5.30;;
74064;SDS011;62421;51.412;5.432;2023-04-25T02:09:57;19.10;;;5.07;;
74064;SDS011;62421;51.412;5.432;2023-04-25T02:12:23;14.63;;;5.23;;
74064;SDS011;62421;51.412;5.432;2023-04-25T02:14:49;23.20;;;6.28;;
74064;SDS011;62421;51.412;5.432;2023-04-25T02:17:14;16.93;;;6.13;;
74064;SDS011;62421;51.412;5.432;2023-04-25T02:19:40;19.83;;;6.07;;
74064;SDS011;62421;51.412;5.432;2023-04-25T02:22:06;20.10;;;6.53;;
74064;SDS011;62421;51.412;5.432;2023-04-25T02:24:32;24.73;;;6.50;;
74064;SDS011;62421;51.412;5.432;2023-04-25T02:26:58;18.90;;;6.03;;
74064;SDS011;62421;51.412;5.432;2023-04-25T02:29:23;23.90;;;6.27;;
74064;SDS011;62421;51.412;5.432;2023-04-25T02:31:49;17.17;;;5.60;;
74064;SDS011;62421;51.412;5.432;2023-04-25T02:34:14;21.07;;;6.00;;
74064;SDS011;62421;51.412;5.432;2023-04-25T02:36:40;15.57;;;5.97;;
74064;SDS011;62421;51.412;5.432;2023-04-25T02:39:05;16.75;;;5.22;;
74064;SDS011;62421;51.412;5.432;2023-04-25T02:41:31;16.77;;;5.90;;
74064;SDS011;62421;51.412;5.432;2023-04-25T02:43:57;20.30;;;5.70;;
74064;SDS011;62421;51.412;5.432;2023-04-25T02:46:22;19.20;;;5.37;;
74064;SDS011;62421;51.412;5.432;2023-04-25T02:48:47;27.63;;;6.57;;
74064;SDS011;62421;51.412;5.432;2023-04-25T02:51:13;16.75;;;5.22;;
74064;SDS011;62421;51.412;5.432;2023-04-25T02:53:38;19.97;;;5.33;;
74064;SDS011;62421;51.412;5.432;2023-04-25T02:56:04;19.70;;;6.47;;
74064;SDS011;62421;51.412;5.432;2023-04-25T02:58:30;25.98;;;6.78;;
74064;SDS011;62421;51.412;5.432;2023-04-25T03:00:55;20.10;;;6.03;;
74064;SDS011;62421;51.412;5.432;2023-04-25T03:03:20;21.27;;;6.00;;
74064;SDS011;62421;51.412;5.432;2023-04-25T03:05:49;21.27;;;6.30;;
74064;SDS011;62421;51.412;5.432;2023-04-25T03:08:17;28.77;;;7.53;;
74064;SDS011;62421;51.412;5.432;2023-04-25T03:10:43;17.30;;;5.93;;
74064;SDS011;62421;51.412;5.432;2023-04-25T03:13:09;20.13;;;6.63;;
74064;SDS011;62421;51.412;5.432;2023-04-25T03:15:35;15.53;;;5.77;;
74064;SDS011;62421;51.412;5.432;2023-04-25T03:18:01;24.63;;;6.45;;
74064;SDS011;62421;51.412;5.432;2023-04-25T03:20:27;26.05;;;6.15;;
74064;SDS011;62421;51.412;5.432;2023-04-25T03:22:52;21.30;;;6.30;;
74064;SDS011;62421;51.412;5.432;2023-04-25T03:25:18;18.83;;;6.60;;
74064;SDS011;62421;51.412;5.432;2023-04-25T03:27:43;29.87;;;6.70;;
74064;SDS011;62421;51.412;5.432;2023-04-25T03:30:08;23.53;;;7.40;;
74064;SDS011;62421;51.412;5.432;2023-04-25T03:32:34;22.92;;;5.35;;
74064;SDS011;62421;51.412;5.432;2023-04-25T03:35:00;23.70;;;6.17;;
74064;SDS011;62421;51.412;5.432;2023-04-25T03:37:25;23.10;;;5.73;;
74064;SDS011;62421;51.412;5.432;2023-04-25T03:39:50;24.47;;;6.27;;
74064;SDS011;62421;51.412;5.432;2023-04-25T03:42:16;26.35;;;5.25;;
74064;SDS011;62421;51.412;5.432;2023-04-25T03:44:42;25.17;;;6.10;;
74064;SDS011;62421;51.412;5.432;2023-04-25T03:47:08;14.93;;;5.90;;
74064;SDS011;62421;51.412;5.432;2023-04-25T03:49:33;18.50;;;5.43;;
74064;SDS011;62421;51.412;5.432;2023-04-25T03:52:00;36.65;;;6.68;;
74064;SDS011;62421;51.412;5.432;2023-04-25T03:54:27;26.00;;;5.40;;
74064;SDS011;62421;51.412;5.432;2023-04-25T03:56:53;22.13;;;6.22;;
74064;SDS011;62421;51.412;5.432;2023-04-25T03:59:18;24.53;;;5.67;;
74064;SDS011;62421;51.412;5.432;2023-04-25T04:01:44;23.33;;;6.67;;
74064;SDS011;62421;51.412;5.432;2023-04-25T04:04:09;16.83;;;5.63;;
74064;SDS011;62421;51.412;5.432;2023-04-25T04:06:34;21.93;;;6.50;;
74064;SDS011;62421;51.412;5.432;2023-04-25T04:09:02;20.65;;;6.38;;
74064;SDS011;62421;51.412;5.432;2023-04-25T04:11:28;19.30;;;6.38;;
74064;SDS011;62421;51.412;5.432;2023-04-25T04:13:53;25.63;;;8.13;;
74064;SDS011;62421;51.412;5.432;2023-04-25T04:16:18;23.63;;;7.60;;
74064;SDS011;62421;51.412;5.432;2023-04-25T04:18:45;21.23;;;8.47;;
74064;SDS011;62421;51.412;5.432;2023-04-25T04:21:10;24.50;;;8.68;;
74064;SDS011;62421;51.412;5.432;2023-04-25T04:23:36;17.73;;;6.80;;
74064;SDS011;62421;51.412;5.432;2023-04-25T04:26:02;19.25;;;6.50;;
74064;SDS011;62421;51.412;5.432;2023-04-25T04:28:27;21.00;;;6.27;;
74064;SDS011;62421;51.412;5.432;2023-04-25T04:30:53;17.10;;;5.85;;
74064;SDS011;62421;51.412;5.432;2023-04-25T04:33:18;28.95;;;6.32;;
74064;SDS011;62421;51.412;5.432;2023-04-25T04:35:44;22.20;;;6.40;;
74064;SDS011;62421;51.412;5.432;2023-04-25T04:38:11;25.30;;;6.13;;
74064;SDS011;62421;51.412;5.432;2023-04-25T04:40:37;25.38;;;9.25;;
74064;SDS011;62421;51.412;5.432;2023-04-25T04:43:02;22.93;;;6.33;;
74064;SDS011;62421;51.412;5.432;2023-04-25T04:45:28;23.10;;;6.30;;
74064;SDS011;62421;51.412;5.432;2023-04-25T04:47:54;25.58;;;7.80;;
74064;SDS011;62421;51.412;5.432;2023-04-25T04:50:20;22.40;;;6.17;;
74064;SDS011;62421;51.412;5.432;2023-04-25T04:52:46;18.40;;;5.95;;
74064;SDS011;62421;51.412;5.432;2023-04-25T04:55:11;20.47;;;6.23;;
74064;SDS011;62421;51.412;5.432;2023-04-25T04:57:36;19.77;;;5.73;;
74064;SDS011;62421;51.412;5.432;2023-04-25T05:00:03;22.15;;;6.78;;
74064;SDS011;62421;51.412;5.432;2023-04-25T05:02:30;21.63;;;6.30;;
74064;SDS011;62421;51.412;5.432;2023-04-25T05:04:55;20.27;;;5.97;;
74064;SDS011;62421;51.412;5.432;2023-04-25T05:07:21;21.38;;;6.35;;
74064;SDS011;62421;51.412;5.432;2023-04-25T05:09:46;25.50;;;6.22;;
74064;SDS011;62421;51.412;5.432;2023-04-25T05:12:12;21.23;;;6.47;;
74064;SDS011;62421;51.412;5.432;2023-04-25T05:14:37;19.57;;;5.73;;
74064;SDS011;62421;51.412;5.432;2023-04-25T05:17:03;18.23;;;6.10;;
74064;SDS011;62421;51.412;5.432;2023-04-25T05:19:33;28.33;;;5.80;;
74064;SDS011;62421;51.412;5.432;2023-04-25T05:21:58;22.20;;;5.53;;
74064;SDS011;62421;51.412;5.432;2023-04-25T05:24:23;25.17;;;5.87;;
74064;SDS011;62421;51.412;5.432;2023-04-25T05:26:49;18.97;;;6.47;;
74064;SDS011;62421;51.412;5.432;2023-04-25T05:29:14;27.07;;;5.97;;
74064;SDS011;62421;51.412;5.432;2023-04-25T05:31:40;29.45;;;5.85;;
74064;SDS011;62421;51.412;5.432;2023-04-25T05:34:05;28.97;;;5.67;;
74064;SDS011;62421;51.412;5.432;2023-04-25T05:36:31;33.97;;;6.87;;
74064;SDS011;62421;51.412;5.432;2023-04-25T05:38:57;21.73;;;5.23;;
74064;SDS011;62421;51.412;5.432;2023-04-25T05:41:22;26.15;;;5.80;;
74064;SDS011;62421;51.412;5.432;2023-04-25T05:43:48;27.93;;;6.70;;
74064;SDS011;62421;51.412;5.432;2023-04-25T05:46:14;18.88;;;5.50;;
74064;SDS011;62421;51.412;5.432;2023-04-25T05:48:42;19.83;;;6.50;;
74064;SDS011;62421;51.412;5.432;2023-04-25T05:51:08;20.70;;;6.87;;
74064;SDS011;62421;51.412;5.432;2023-04-25T05:53:34;19.80;;;5.75;;
74064;SDS011;62421;51.412;5.432;2023-04-25T05:55:59;15.03;;;5.77;;
74064;SDS011;62421;51.412;5.432;2023-04-25T05:58:24;26.77;;;6.63;;
74064;SDS011;62421;51.412;5.432;2023-04-25T06:00:50;14.82;;;5.63;;
74064;SDS011;62421;51.412;5.432;2023-04-25T06:03:15;15.90;;;5.82;;
74064;SDS011;62421;51.412;5.432;2023-04-25T06:05:41;26.20;;;5.87;;
74064;SDS011;62421;51.412;5.432;2023-04-25T06:08:07;28.00;;;6.53;;
74064;SDS011;62421;51.412;5.432;2023-04-25T06:10:33;28.63;;;6.77;;
74064;SDS011;62421;51.412;5.432;2023-04-25T06:12:58;24.17;;;6.53;;
74064;SDS011;62421;51.412;5.432;2023-04-25T06:15:24;22.00;;;6.15;;
74064;SDS011;62421;51.412;5.432;2023-04-25T06:17:49;23.10;;;7.43;;
74064;SDS011;62421;51.412;5.432;2023-04-25T06:20:15;19.43;;;5.80;;
74064;SDS011;62421;51.412;5.432;2023-04-25T06:22:40;21.37;;;5.57;;
74064;SDS011;62421;51.412;5.432;2023-04-25T06:25:06;24.07;;;5.90;;
74064;SDS011;62421;51.412;5.432;2023-04-25T06:27:32;25.77;;;8.85;;
74064;SDS011;62421;51.412;5.432;2023-04-25T06:29:58;19.70;;;5.28;;
74064;SDS011;62421;51.412;5.432;2023-04-25T06:32:23;21.60;;;6.00;;
74064;SDS011;62421;51.412;5.432;2023-04-25T06:34:48;20.13;;;5.67;;
74064;SDS011;62421;51.412;5.432;2023-04-25T06:37:14;22.73;;;6.17;;
74064;SDS011;62421;51.412;5.432;2023-04-25T06:39:39;22.90;;;5.73;;
74064;SDS011;62421;51.412;5.432;2023-04-25T06:42:04;17.43;;;4.73;;
74064;SDS011;62421;51.412;5.432;2023-04-25T06:44:30;24.50;;;5.33;;
74064;SDS011;62421;51.412;5.432;2023-04-25T06:46:55;18.45;;;5.07;;
74064;SDS011;62421;51.412;5.432;2023-04-25T06:49:21;18.17;;;3.60;;
74064;SDS011;62421;51.412;5.432;2023-04-25T06:51:46;17.50;;;4.27;;
74064;SDS011;62421;51.412;5.432;2023-04-25T06:54:12;23.13;;;4.67;;
74064;SDS011;62421;51.412;5.432;2023-04-25T06:56:37;20.37;;;5.07;;
74064;SDS011;62421;51.412;5.432;2023-04-25T06:59:02;9.80;;;3.63;;
74064;SDS011;62421;51.412;5.432;2023-04-25T07:01:28;9.32;;;3.13;;
74064;SDS011;62421;51.412;5.432;2023-04-25T07:03:53;24.27;;;4.33;;
74064;SDS011;62421;51.412;5.432;2023-04-25T07:06:18;12.40;;;3.13;;
74064;SDS011;62421;51.412;5.432;2023-04-25T07:08:44;17.33;;;3.17;;
74064;SDS011;62421;51.412;5.432;2023-04-25T07:11:09;17.10;;;3.07;;
74064;SDS011;62421;51.412;5.432;2023-04-25T07:13:35;14.17;;;2.73;;
74064;SDS011;62421;51.412;5.432;2023-04-25T07:16:00;10.13;;;2.93;;
74064;SDS011;62421;51.412;5.432;2023-04-25T07:18:25;18.37;;;2.60;;
74064;SDS011;62421;51.412;5.432;2023-04-25T07:20:51;17.73;;;2.63;;
74064;SDS011;62421;51.412;5.432;2023-04-25T07:23:16;14.05;;;2.72;;
74064;SDS011;62421;51.412;5.432;2023-04-25T07:25:41;6.97;;;1.87;;
74064;SDS011;62421;51.412;5.432;2023-04-25T07:28:07;12.47;;;2.37;;
74064;SDS011;62421;51.412;5.432;2023-04-25T07:30:32;9.83;;;2.10;;
74064;SDS011;62421;51.412;5.432;2023-04-25T07:32:59;12.48;;;2.55;;
74064;SDS011;62421;51.412;5.432;2023-04-25T07:35:25;11.87;;;2.53;;
74064;SDS011;62421;51.412;5.432;2023-04-25T07:37:50;16.67;;;2.50;;
74064;SDS011;62421;51.412;5.432;2023-04-25T07:40:16;13.50;;;2.30;;
74064;SDS011;62421;51.412;5.432;2023-04-25T07:42:41;14.32;;;2.00;;
74064;SDS011;62421;51.412;5.432;2023-04-25T07:45:07;12.33;;;1.70;;
74064;SDS011;62421;51.412;5.432;2023-04-25T07:47:34;10.40;;;2.22;;
74064;SDS011;62421;51.412;5.432;2023-04-25T07:49:59;9.47;;;2.10;;
74064;SDS011;62421;51.412;5.432;2023-04-25T07:52:25;13.77;;;2.23;;
74064;SDS011;62421;51.412;5.432;2023-04-25T07:54:50;6.20;;;1.70;;
74064;SDS011;62421;51.412;5.432;2023-04-25T07:57:16;7.03;;;2.42;;
74064;SDS011;62421;51.412;5.432;2023-04-25T07:59:42;11.47;;;2.47;;
74064;SDS011;62421;51.412;5.432;2023-04-25T08:02:07;10.27;;;2.07;;
74064;SDS011;62421;51.412;5.432;2023-04-25T08:04:32;8.40;;;1.75;;
74064;SDS011;62421;51.412;5.432;2023-04-25T08:06:58;6.43;;;1.88;;
74064;SDS011;62421;51.412;5.432;2023-04-25T08:09:23;11.93;;;1.63;;
74064;SDS011;62421;51.412;5.432;2023-04-25T08:11:49;10.97;;;2.27;;
74064;SDS011;62421;51.412;5.432;2023-04-25T08:14:14;9.67;;;2.03;;
74064;SDS011;62421;51.412;5.432;2023-04-25T08:16:39;7.93;;;2.53;;
74064;SDS011;62421;51.412;5.432;2023-04-25T08:19:05;7.53;;;2.13;;
74064;SDS011;62421;51.412;5.432;2023-04-25T08:21:31;11.38;;;2.92;;
74064;SDS011;62421;51.412;5.432;2023-04-25T08:23:56;10.47;;;2.33;;
74064;SDS011;62421;51.412;5.432;2023-04-25T08:26:23;7.72;;;1.80;;
74064;SDS011;62421;51.412;5.432;2023-04-25T08:28:49;10.45;;;1.92;;
74064;SDS011;62421;51.412;5.432;2023-04-25T08:31:15;11.98;;;2.10;;
74064;SDS011;62421;51.412;5.432;2023-04-25T08:33:40;9.98;;;2.13;;
74064;SDS011;62421;51.412;5.432;2023-04-25T08:36:06;8.17;;;1.80;;
74064;SDS011;62421;51.412;5.432;2023-04-25T08:38:31;11.77;;;2.40;;
74064;SDS011;62421;51.412;5.432;2023-04-25T08:40:57;6.10;;;2.33;;
74064;SDS011;62421;51.412;5.432;2023-04-25T08:43:25;8.57;;;1.98;;
74064;SDS011;62421;51.412;5.432;2023-04-25T08:45:51;17.20;;;2.60;;
74064;SDS011;62421;51.412;5.432;2023-04-25T08:48:19;13.70;;;2.70;;
74064;SDS011;62421;51.412;5.432;2023-04-25T08:53:12;11.00;;;2.15;;
74064;SDS011;62421;51.412;5.432;2023-04-25T08:55:45;9.88;;;2.38;;
74064;SDS011;62421;51.412;5.432;2023-04-25T08:58:12;10.40;;;2.63;;
74064;SDS011;62421;51.412;5.432;2023-04-25T09:00:38;11.00;;;2.03;;
74064;SDS011;62421;51.412;5.432;2023-04-25T09:03:04;11.45;;;2.50;;
74064;SDS011;62421;51.412;5.432;2023-04-25T09:05:29;9.70;;;1.77;;
74064;SDS011;62421;51.412;5.432;2023-04-25T09:07:55;16.63;;;2.40;;
74064;SDS011;62421;51.412;5.432;2023-04-25T09:10:21;20.80;;;2.35;;
74064;SDS011;62421;51.412;5.432;2023-04-25T09:13:03;7.63;;;2.10;;
74064;SDS011;62421;51.412;5.432;2023-04-25T09:18:25;10.35;;;2.50;;
74064;SDS011;62421;51.412;5.432;2023-04-25T09:20:54;8.50;;;2.15;;
74064;SDS011;62421;51.412;5.432;2023-04-25T09:23:30;9.02;;;1.50;;
74064;SDS011;62421;51.412;5.432;2023-04-25T09:25:57;9.50;;;1.90;;
74064;SDS011;62421;51.412;5.432;2023-04-25T09:28:23;8.90;;;1.67;;
74064;SDS011;62421;51.412;5.432;2023-04-25T09:30:54;9.32;;;1.85;;
74064;SDS011;62421;51.412;5.432;2023-04-25T09:33:21;7.82;;;2.08;;
74064;SDS011;62421;51.412;5.432;2023-04-25T09:35:53;13.18;;;2.05;;
74064;SDS011;62421;51.412;5.432;2023-04-25T09:38:20;14.70;;;3.25;;
74064;SDS011;62421;51.412;5.432;2023-04-25T09:40:47;6.60;;;1.43;;
74064;SDS011;62421;51.412;5.432;2023-04-25T09:43:24;12.23;;;1.88;;
74064;SDS011;62421;51.412;5.432;2023-04-25T09:45:53;11.45;;;1.52;;
74064;SDS011;62421;51.412;5.432;2023-04-25T09:48:22;8.07;;;2.13;;
74064;SDS011;62421;51.412;5.432;2023-04-25T09:51:05;11.63;;;2.40;;
74064;SDS011;62421;51.412;5.432;2023-04-25T09:53:38;6.88;;;1.25;;
74064;SDS011;62421;51.412;5.432;2023-04-25T09:56:07;7.32;;;1.73;;
74064;SDS011;62421;51.412;5.432;2023-04-25T09:58:34;8.20;;;1.60;;
74064;SDS011;62421;51.412;5.432;2023-04-25T10:01:05;17.23;;;2.15;;
74064;SDS011;62421;51.412;5.432;2023-04-25T10:03:33;9.40;;;1.77;;
74064;SDS011;62421;51.412;5.432;2023-04-25T10:06:00;12.98;;;1.70;;
74064;SDS011;62421;51.412;5.432;2023-04-25T10:08:33;11.20;;;3.45;;
74064;SDS011;62421;51.412;5.432;2023-04-25T10:11:01;12.35;;;2.17;;
74064;SDS011;62421;51.412;5.432;2023-04-25T10:13:29;10.25;;;2.35;;
74064;SDS011;62421;51.412;5.432;2023-04-25T10:15:59;7.03;;;1.60;;
74064;SDS011;62421;51.412;5.432;2023-04-25T10:18:26;8.23;;;2.00;;
74064;SDS011;62421;51.412;5.432;2023-04-25T10:20:56;7.50;;;1.63;;
74064;SDS011;62421;51.412;5.432;2023-04-25T10:23:23;7.38;;;1.45;;
74064;SDS011;62421;51.412;5.432;2023-04-25T10:25:50;8.35;;;2.38;;
74064;SDS011;62421;51.412;5.432;2023-04-25T10:28:17;12.33;;;2.03;;
74064;SDS011;62421;51.412;5.432;2023-04-25T10:31:02;10.70;;;1.92;;
74064;SDS011;62421;51.412;5.432;2023-04-25T10:33:30;8.77;;;1.88;;
74064;SDS011;62421;51.412;5.432;2023-04-25T10:36:11;11.65;;;2.65;;
74064;SDS011;62421;51.412;5.432;2023-04-25T10:38:42;9.98;;;1.80;;
74064;SDS011;62421;51.412;5.432;2023-04-25T10:41:08;4.83;;;1.70;;
74064;SDS011;62421;51.412;5.432;2023-04-25T10:46:01;6.75;;;1.75;;
74064;SDS011;62421;51.412;5.432;2023-04-25T10:48:28;7.53;;;1.83;;
74064;SDS011;62421;51.412;5.432;2023-04-25T10:51:11;4.50;;;1.83;;
74064;SDS011;62421;51.412;5.432;2023-04-25T10:53:37;7.80;;;2.00;;
74064;SDS011;62421;51.412;5.432;2023-04-25T10:56:09;11.02;;;1.90;;
74064;SDS011;62421;51.412;5.432;2023-04-25T10:58:35;4.53;;;2.03;;
74064;SDS011;62421;51.412;5.432;2023-04-25T11:01:01;9.88;;;2.95;;
74064;SDS011;62421;51.412;5.432;2023-04-25T11:03:26;8.07;;;2.20;;
74064;SDS011;62421;51.412;5.432;2023-04-25T11:05:52;7.80;;;1.50;;
74064;SDS011;62421;51.412;5.432;2023-04-25T11:08:19;12.70;;;2.08;;
74064;SDS011;62421;51.412;5.432;2023-04-25T11:10:58;9.07;;;1.90;;
74064;SDS011;62421;51.412;5.432;2023-04-25T11:13:28;7.90;;;2.10;;
74064;SDS011;62421;51.412;5.432;2023-04-25T11:15:55;8.43;;;1.67;;
74064;SDS011;62421;51.412;5.432;2023-04-25T11:18:20;6.00;;;1.70;;
74064;SDS011;62421;51.412;5.432;2023-04-25T11:20:46;10.40;;;2.03;;
74064;SDS011;62421;51.412;5.432;2023-04-25T11:23:13;5.53;;;1.45;;
74064;SDS011;62421;51.412;5.432;2023-04-25T11:25:40;7.22;;;1.67;;
74064;SDS011;62421;51.412;5.432;2023-04-25T11:28:05;6.50;;;1.67;;
74064;SDS011;62421;51.412;5.432;2023-04-25T11:30:31;5.73;;;1.97;;
74064;SDS011;62421;51.412;5.432;2023-04-25T11:32:56;6.97;;;1.63;;
74064;SDS011;62421;51.412;5.432;2023-04-25T11:35:21;11.30;;;1.90;;
74064;SDS011;62421;51.412;5.432;2023-04-25T11:37:48;9.48;;;2.30;;
74064;SDS011;62421;51.412;5.432;2023-04-25T11:40:14;12.50;;;2.10;;
74064;SDS011;62421;51.412;5.432;2023-04-25T11:42:43;8.20;;;1.73;;
74064;SDS011;62421;51.412;5.432;2023-04-25T11:45:10;12.77;;;2.25;;
74064;SDS011;62421;51.412;5.432;2023-04-25T11:47:36;9.73;;;1.85;;
74064;SDS011;62421;51.412;5.432;2023-04-25T11:50:03;7.40;;;1.70;;
74064;SDS011;62421;51.412;5.432;2023-04-25T11:52:39;5.53;;;1.77;;
74064;SDS011;62421;51.412;5.432;2023-04-25T11:55:06;5.50;;;1.43;;
74064;SDS011;62421;51.412;5.432;2023-04-25T11:57:42;5.72;;;1.63;;
74064;SDS011;62421;51.412;5.432;2023-04-25T12:00:10;8.63;;;1.95;;
74064;SDS011;62421;51.412;5.432;2023-04-25T12:02:44;6.60;;;1.90;;
74064;SDS011;62421;51.412;5.432;2023-04-25T12:05:16;5.75;;;1.27;;
74064;SDS011;62421;51.412;5.432;2023-04-25T12:07:41;6.63;;;1.50;;
74064;SDS011;62421;51.412;5.432;2023-04-25T12:12:34;5.40;;;1.80;;
74064;SDS011;62421;51.412;5.432;2023-04-25T12:15:13;6.95;;;1.60;;
74064;SDS011;62421;51.412;5.432;2023-04-25T12:17:44;5.38;;;1.42;;
74064;SDS011;62421;51.412;5.432;2023-04-25T12:20:15;7.78;;;2.13;;
74064;SDS011;62421;51.412;5.432;2023-04-25T12:22:42;7.78;;;1.90;;
74064;SDS011;62421;51.412;5.432;2023-04-25T12:25:11;6.93;;;1.83;;
74064;SDS011;62421;51.412;5.432;2023-04-25T12:27:38;6.60;;;2.67;;
74064;SDS011;62421;51.412;5.432;2023-04-25T12:30:08;6.47;;;1.48;;
74064;SDS011;62421;51.412;5.432;2023-04-25T12:32:35;6.20;;;1.23;;
74064;SDS011;62421;51.412;5.432;2023-04-25T12:35:01;4.27;;;1.70;;
74064;SDS011;62421;51.412;5.432;2023-04-25T12:37:28;9.33;;;1.50;;
74064;SDS011;62421;51.412;5.432;2023-04-25T12:39:53;6.22;;;1.90;;
74064;SDS011;62421;51.412;5.432;2023-04-25T12:42:19;6.50;;;1.30;;
74064;SDS011;62421;51.412;5.432;2023-04-25T12:44:44;5.78;;;1.50;;
74064;SDS011;62421;51.412;5.432;2023-04-25T12:47:10;5.93;;;1.20;;
74064;SDS011;62421;51.412;5.432;2023-04-25T12:49:35;6.40;;;1.40;;
74064;SDS011;62421;51.412;5.432;2023-04-25T12:52:00;6.00;;;1.53;;
74064;SDS011;62421;51.412;5.432;2023-04-25T12:54:26;8.32;;;1.67;;
74064;SDS011;62421;51.412;5.432;2023-04-25T12:56:51;5.25;;;1.85;;
74064;SDS011;62421;51.412;5.432;2023-04-25T12:59:17;10.87;;;1.53;;
74064;SDS011;62421;51.412;5.432;2023-04-25T13:01:43;5.30;;;1.50;;
74064;SDS011;62421;51.412;5.432;2023-04-25T13:04:10;2.78;;;1.02;;
74064;SDS011;62421;51.412;5.432;2023-04-25T13:06:35;6.50;;;1.77;;
74064;SDS011;62421;51.412;5.432;2023-04-25T13:09:01;3.77;;;1.13;;
74064;SDS011;62421;51.412;5.432;2023-04-25T13:11:26;12.02;;;2.03;;
74064;SDS011;62421;51.412;5.432;2023-04-25T13:13:52;5.90;;;1.73;;
74064;SDS011;62421;51.412;5.432;2023-04-25T13:16:17;12.67;;;1.67;;
74064;SDS011;62421;51.412;5.432;2023-04-25T13:18:45;7.73;;;1.30;;
74064;SDS011;62421;51.412;5.432;2023-04-25T13:21:11;13.35;;;1.75;;
74064;SDS011;62421;51.412;5.432;2023-04-25T13:23:36;10.53;;;1.70;;
74064;SDS011;62421;51.412;5.432;2023-04-25T13:26:02;6.60;;;1.90;;
74064;SDS011;62421;51.412;5.432;2023-04-25T13:28:27;4.97;;;1.63;;
74064;SDS011;62421;51.412;5.432;2023-04-25T13:30:53;5.97;;;1.50;;
74064;SDS011;62421;51.412;5.432;2023-04-25T13:33:19;4.33;;;1.30;;
74064;SDS011;62421;51.412;5.432;2023-04-25T13:35:45;8.32;;;1.98;;
74064;SDS011;62421;51.412;5.432;2023-04-25T13:38:12;6.15;;;1.60;;
74064;SDS011;62421;51.412;5.432;2023-04-25T13:40:38;5.80;;;1.70;;
74064;SDS011;62421;51.412;5.432;2023-04-25T13:43:03;8.77;;;1.90;;
74064;SDS011;62421;51.412;5.432;2023-04-25T13:45:29;9.77;;;1.33;;
74064;SDS011;62421;51.412;5.432;2023-04-25T13:47:54;4.70;;;1.33;;
74064;SDS011;62421;51.412;5.432;2023-04-25T13:50:20;6.68;;;1.98;;
74064;SDS011;62421;51.412;5.432;2023-04-25T13:52:46;4.87;;;1.00;;
74064;SDS011;62421;51.412;5.432;2023-04-25T13:55:11;4.47;;;1.20;;
74064;SDS011;62421;51.412;5.432;2023-04-25T13:57:37;8.45;;;1.70;;
74064;SDS011;62421;51.412;5.432;2023-04-25T14:00:03;7.38;;;2.25;;
74064;SDS011;62421;51.412;5.432;2023-04-25T14:02:34;9.07;;;1.60;;
74064;SDS011;62421;51.412;5.432;2023-04-25T14:05:03;8.60;;;1.40;;
74064;SDS011;62421;51.412;5.432;2023-04-25T14:07:29;5.15;;;1.33;;
74064;SDS011;62421;51.412;5.432;2023-04-25T14:09:55;7.38;;;1.77;;
74064;SDS011;62421;51.412;5.432;2023-04-25T14:12:22;7.83;;;1.60;;
74064;SDS011;62421;51.412;5.432;2023-04-25T14:14:48;6.55;;;1.90;;
74064;SDS011;62421;51.412;5.432;2023-04-25T14:17:14;11.50;;;1.50;;
74064;SDS011;62421;51.412;5.432;2023-04-25T14:19:39;4.45;;;1.55;;
74064;SDS011;62421;51.412;5.432;2023-04-25T14:22:08;4.75;;;1.52;;
74064;SDS011;62421;51.412;5.432;2023-04-25T14:24:33;7.93;;;2.83;;
74064;SDS011;62421;51.412;5.432;2023-04-25T14:26:59;9.80;;;1.60;;
74064;SDS011;62421;51.412;5.432;2023-04-25T14:29:25;5.50;;;1.33;;
74064;SDS011;62421;51.412;5.432;2023-04-25T14:31:51;6.15;;;1.45;;
74064;SDS011;62421;51.412;5.432;2023-04-25T14:47:33;8.25;;;1.45;;
74064;SDS011;62421;51.412;5.432;2023-04-25T14:49:59;7.00;;;2.10;;
74064;SDS011;62421;51.412;5.432;2023-04-25T14:52:26;9.40;;;1.83;;
74064;SDS011;62421;51.412;5.432;2023-04-25T14:54:51;4.10;;;1.25;;
74064;SDS011;62421;51.412;5.432;2023-04-25T14:57:17;6.13;;;1.40;;